Flight Track Log - Related Links

Times and Time Zones

All times are in EDT time to prevent confusion due to time zone crossing. See the N914P flight status page for this flight to view local times or setup timezone preferences in your user account.


Time Position Orientation Groundspeed Altitude Reporting Facility
EDT Latitude Longitude Course Direction KTS MPH feet Rate Location/Type
Thu 03:02:15 PM 40.9229 -81.4523 239° Southwest  Level FlightAware Approximate
Thu 03:03:15 PM 40.9464 -81.4784 225° Southwest  Level FlightAware Approximate
Thu 03:04:15 PM 40.9699 -81.5045 212° Southwest  Level FlightAware Approximate
Thu 03:05:15 PM 40.9933 -81.5306 200° South  Level FlightAware Approximate
Thu 03:06:15 PM 41.0168 -81.5567 191° South  Level FlightAware Approximate
Thu 03:06:45 PM 40.8569 -81.5961 318° Northwest 93 107 5,300  Level Cleveland Center
Thu 03:07:34 PM 40.8733 -81.6156 320° Northwest 109 125 5,900 436 Climbing Cleveland Center
Thu 03:08:35 PM 40.8981 -81.6433 322° Northwest 116 133 6,100 47 Climbing Cleveland Center
Thu 03:09:42 PM 40.9311 -81.6769 317° Northwest 129 148 6,000 -94 Descending Cleveland Center
Thu 03:10:42 PM 40.9558 -81.7075 317° Northwest 128 147 5,900  Descending Cleveland Center
Thu 03:11:37 PM 40.9806 -81.7383 322° Northwest 124 143 6,000 52 Climbing Cleveland Center
Thu 03:12:38 PM 41.0075 -81.7664 324° Northwest 127 146 6,000 -49 Level Cleveland Center
Thu 03:13:39 PM 41.0364 -81.7942 316° Northwest 127 146 5,900 -49 Descending Cleveland Center
Thu 03:14:40 PM 41.0631 -81.8278 319° Northwest 124 143 5,900 49 Level Cleveland Center
Thu 03:15:41 PM 41.0878 -81.8558 316° Northwest 117 135 6,000 50 Climbing Cleveland Center
Thu 03:16:41 PM 41.1144 -81.8894 326° Northwest 126 145 6,000  Level Cleveland Center
Thu 03:17:42 PM 41.1433 -81.9150 326° Northwest 131 151 6,000  Level Cleveland Center
Thu 03:18:43 PM 41.1744 -81.9431 323° Northwest 131 151 6,000  Level Cleveland Center
Thu 03:19:43 PM 41.2031 -81.9714 324° Northwest 129 148 6,000  Level Cleveland Center
Thu 03:20:44 PM 41.2319 -81.9994 323° Northwest 128 147 6,000  Level Cleveland Center
Thu 03:21:51 PM 41.2628 -82.0306 329° Northwest 129 148 6,000  Level Cleveland Center
Thu 03:22:45 PM 41.2917 -82.0533 326° Northwest 128 147 6,000  Level Cleveland Center
Thu 03:23:46 PM 41.3228 -82.0817 321° Northwest 129 148 6,000  Level Cleveland Center
Thu 03:24:47 PM 41.3494 -82.1100 325° Northwest 127 146 6,000  Level Cleveland Center
Thu 03:25:48 PM 41.3803 -82.1383 321° Northwest 130 150 6,000 -49 Level Cleveland Center
Thu 03:26:49 PM 41.4092 -82.1694 319° Northwest 129 148 5,900  Descending Cleveland Center
Thu 03:27:49 PM 41.4336 -82.1978 319° Northwest 129 148 6,000 50 Climbing Cleveland Center
Thu 03:28:50 PM 41.4625 -82.2317 318° Northwest 131 151 6,000 -49 Level Cleveland Center
Thu 03:29:51 PM 41.4911 -82.2658 321° Northwest 129 148 5,900 -49 Descending Cleveland Center
Thu 03:30:52 PM 41.5178 -82.2942 316° Northwest 128 147 5,900 50 Level Cleveland Center
Thu 03:31:52 PM 41.5444 -82.3283 323° Northwest 127 146 6,000 50 Climbing Cleveland Center
Thu 03:32:53 PM 41.5731 -82.3567 325° Northwest 129 148 6,000 -49 Level Cleveland Center
Thu 03:33:54 PM 41.6039 -82.3853 325° Northwest 131 151 5,900 -47 Descending Cleveland Center
Thu 03:35:00 PM 41.6347 -82.4139 329° Northwest 128 147 5,900  Level Cleveland Center
Thu 03:35:55 PM 41.6636 -82.4369 328° Northwest 128 147 5,900 49 Level Cleveland Center
Thu 03:37:02 PM 41.6986 -82.4658 320° Northwest 131 151 6,000 -46 Climbing Cleveland Center
Thu 03:38:06 PM 41.7292 -82.5003 325° Northwest 130 150 5,800 -96 Descending Cleveland Center
Thu 03:39:07 PM 41.7600 -82.5289 320° Northwest 129 148 5,800  Level Cleveland Center
Thu 03:40:44 PM 41.8008 -82.5753 320° Northwest 125 144 5,800  Level FAA TRACON SMA TRACON (SMA)
Thu 03:41:24 PM 41.8175 -82.5942 320° Northwest 125 144 5,800  Level FAA TRACON SMA TRACON (SMA)
Thu 03:42:04 PM 41.8361 -82.6150 341° North 125 144 5,800 74 Level FAA TRACON SMA TRACON (SMA)
Thu 03:42:45 PM 41.8583 -82.6250 348° North 141 162 5,900 -148 Climbing FAA TRACON SMA TRACON (SMA)
Thu 03:43:25 PM 41.8833 -82.6322 343° North 139 160 5,600 -380 Descending FAA TRACON SMA TRACON (SMA)
Thu 03:44:04 PM 41.9086 -82.6425 339° North 136 157 5,400 -385 Descending FAA TRACON SMA TRACON (SMA)
Thu 03:44:43 PM 41.9317 -82.6544 336° Northwest 134 154 5,100 -360 Descending FAA TRACON SMA TRACON (SMA)
Thu 03:45:44 PM 41.9656 -82.6747 331° Northwest 132 152 4,800 -176 Descending FAA TRACON SMA TRACON (SMA)
Thu 03:46:25 PM 41.9869 -82.6906 331° Northwest 131 151 4,800 74 Level FAA TRACON SMA TRACON (SMA)
Thu 03:47:05 PM 42.0081 -82.7061 334° Northwest 129 148 4,900  Climbing FAA TRACON SMA TRACON (SMA)
Thu 03:47:44 PM 42.0286 -82.7194 334° Northwest 131 151 4,800 -76 Descending FAA TRACON SMA TRACON (SMA)
Thu 03:48:24 PM 42.0519 -82.7347 336° Northwest 132 152 4,800  Level FAA TRACON SMA TRACON (SMA)
Thu 03:49:05 PM 42.0761 -82.7492 338° Northwest 133 153 4,800 74 Level FAA TRACON SMA TRACON (SMA)
Thu 03:49:45 PM 42.0969 -82.7603 337° Northwest 130 150 4,900 75 Climbing FAA TRACON SMA TRACON (SMA)
Thu 03:50:25 PM 42.1203 -82.7736 337° Northwest 131 151 4,900 76 Level FAA TRACON SMA TRACON (SMA)
Thu 03:51:04 PM 42.1425 -82.7861 344° North 128 147 5,000 76 Climbing FAA TRACON SMA TRACON (SMA)
Thu 03:51:44 PM 42.1644 -82.7947 346° North 130 150 5,000  Level FAA TRACON SMA TRACON (SMA)
Thu 03:52:25 PM 42.1894 -82.8033 344° North 134 154 5,000  Level FAA TRACON SMA TRACON (SMA)
Thu 03:53:05 PM 42.2147 -82.8133 344° North 136 157 5,000  Level FAA TRACON SMA TRACON (SMA)
Thu 03:53:45 PM 42.2378 -82.8222 342° North 137 158 5,000  Level FAA TRACON SMA TRACON (SMA)
Thu 03:54:20 PM 42.2631 -82.8333 353° North 138 159 5,000  Level Cleveland Center
Thu 03:55:21 PM 42.3025 -82.8403 342° North 141 162 5,000 -49 Level Cleveland Center
Thu 03:56:22 PM 42.3378 -82.8556 343° North 137 158 4,900  Descending Cleveland Center
Thu 03:57:23 PM 42.3750 -82.8711 338° Northwest 132 152 5,000 -98 Climbing Cleveland Center
Thu 03:58:24 PM 42.4078 -82.8892 324° Northwest 129 148 4,700 -492 Descending Cleveland Center
Thu 03:59:25 PM 42.4344 -82.9153 314° West 118 136 4,000 -609 Descending Cleveland Center
Thu 04:00:32 PM 42.4589 -82.9500 313° West 118 136 3,400 -469 Descending Cleveland Center
Thu 04:01:33 PM 42.4811 -82.9819 313° West 113 130 3,000 -188 Descending Cleveland Center
Thu 04:02:40 PM 42.5072 -83.0194 309° West 122 140 3,000  Level Cleveland Center
Thu 04:03:41 PM 42.5294 -83.0569 313° West 123 142 3,000 49 Level Cleveland Center
Thu 04:04:42 PM 42.5536 -83.0917 313° West 124 143 3,100 49 Climbing Cleveland Center
Thu 04:05:44 PM 42.5781 -83.1267 344° North 121 139 3,100 -57 Level Cleveland Center
Thu 04:06:28 PM 42.6000 -83.1353 342° North 141 162 3,000 -148 Descending FAA TRACON SMA TRACON (SMA)
Thu 04:07:05 PM 42.6225 -83.1453 313° West 131 151 2,900  Descending FAA TRACON SMA TRACON (SMA)
Thu 04:07:45 PM 42.6372 -83.1664 311° West 119 137 3,000 75 Climbing FAA TRACON SMA TRACON (SMA)
Thu 04:08:25 PM 42.6525 -83.1906 297° West 119 137 3,000  Level FAA TRACON SMA TRACON (SMA)
Thu 04:09:05 PM 42.6625 -83.2172 287° West 118 136 3,000  Level FAA TRACON SMA TRACON (SMA)
Thu 04:09:46 PM 42.6686 -83.2447 277° West 112 129 3,000  Level FAA TRACON SMA TRACON (SMA)
Thu 04:10:25 PM 42.6711 -83.2711 271° West 107 123 3,000 -152 Level FAA TRACON SMA TRACON (SMA)
Thu 04:11:05 PM 42.6714 -83.2981 264° West 103 119 2,800 -375 Descending FAA TRACON SMA TRACON (SMA)
Thu 04:11:45 PM 42.6697 -83.3200 265° West 96 110 2,500 -519 Descending FAA TRACON SMA TRACON (SMA)
Thu 04:12:26 PM 42.6683 -83.3428 266° West 88 101 2,100 -466 Descending FAA TRACON SMA TRACON (SMA)
Thu 04:13:28 PM 42.6667 -83.3764 267° West 90 104 1,700 -485 Descending FAA TRACON SMA TRACON (SMA)
Thu 04:14:05 PM 42.6661 -83.3906 137° Southeast 77 89 1,300 -649 Descending FAA TRACON SMA TRACON (SMA)

Login

Don't have an account? Register now (free) for customized features, flight alerts, and more!